sensor_id;sensor_type;location;lat;lon;timestamp;P1;durP1;ratioP1;P2;durP2;ratioP2
15516;SDS011;7860;52.030;5.572;2022-12-11T00:03:00;99.64;;;31.51;;
15516;SDS011;7860;52.030;5.572;2022-12-11T00:03:01;106.28;;;32.02;;
15516;SDS011;7860;52.030;5.572;2022-12-11T00:03:01;107.09;;;31.55;;
15516;SDS011;7860;52.030;5.572;2022-12-11T00:03:17;113.90;;;32.71;;
15516;SDS011;7860;52.030;5.572;2022-12-11T00:04:18;100.35;;;30.47;;
15516;SDS011;7860;52.030;5.572;2022-12-11T00:05:19;105.28;;;31.73;;
15516;SDS011;7860;52.030;5.572;2022-12-11T00:06:19;109.91;;;31.86;;
15516;SDS011;7860;52.030;5.572;2022-12-11T00:07:19;102.87;;;31.32;;
15516;SDS011;7860;52.030;5.572;2022-12-11T00:08:19;110.09;;;32.95;;
15516;SDS011;7860;52.030;5.572;2022-12-11T00:09:20;97.83;;;31.23;;
15516;SDS011;7860;52.030;5.572;2022-12-11T00:10:21;97.31;;;30.60;;
15516;SDS011;7860;52.030;5.572;2022-12-11T00:11:22;103.77;;;31.87;;
15516;SDS011;7860;52.030;5.572;2022-12-11T00:12:22;103.70;;;31.87;;
15516;SDS011;7860;52.030;5.572;2022-12-11T00:13:23;109.79;;;32.60;;
15516;SDS011;7860;52.030;5.572;2022-12-11T00:14:23;113.94;;;32.76;;
15516;SDS011;7860;52.030;5.572;2022-12-11T00:15:24;103.85;;;31.46;;
15516;SDS011;7860;52.030;5.572;2022-12-11T00:16:25;91.72;;;30.96;;
15516;SDS011;7860;52.030;5.572;2022-12-11T00:17:26;111.47;;;32.80;;
15516;SDS011;7860;52.030;5.572;2022-12-11T00:18:26;101.71;;;31.52;;
15516;SDS011;7860;52.030;5.572;2022-12-11T00:19:27;103.81;;;32.41;;
15516;SDS011;7860;52.030;5.572;2022-12-11T00:20:28;109.35;;;32.45;;
15516;SDS011;7860;52.030;5.572;2022-12-11T00:21:29;113.94;;;33.17;;
15516;SDS011;7860;52.030;5.572;2022-12-11T00:22:29;116.73;;;33.52;;
15516;SDS011;7860;52.030;5.572;2022-12-11T00:23:29;112.16;;;33.45;;
15516;SDS011;7860;52.030;5.572;2022-12-11T00:24:30;100.98;;;31.49;;
15516;SDS011;7860;52.030;5.572;2022-12-11T00:25:31;109.78;;;31.81;;
15516;SDS011;7860;52.030;5.572;2022-12-11T00:26:31;113.01;;;33.48;;
15516;SDS011;7860;52.030;5.572;2022-12-11T00:27:32;114.28;;;33.59;;
15516;SDS011;7860;52.030;5.572;2022-12-11T00:28:32;105.84;;;31.97;;
15516;SDS011;7860;52.030;5.572;2022-12-11T00:29:33;97.71;;;30.38;;
15516;SDS011;7860;52.030;5.572;2022-12-11T00:30:37;105.45;;;32.30;;
15516;SDS011;7860;52.030;5.572;2022-12-11T00:31:35;106.64;;;32.63;;
15516;SDS011;7860;52.030;5.572;2022-12-11T00:32:36;104.61;;;30.89;;
15516;SDS011;7860;52.030;5.572;2022-12-11T00:33:37;101.56;;;32.06;;
15516;SDS011;7860;52.030;5.572;2022-12-11T00:34:38;116.07;;;33.73;;
15516;SDS011;7860;52.030;5.572;2022-12-11T00:35:39;107.93;;;32.25;;
15516;SDS011;7860;52.030;5.572;2022-12-11T00:36:39;116.84;;;32.78;;
15516;SDS011;7860;52.030;5.572;2022-12-11T00:37:39;115.20;;;33.68;;
15516;SDS011;7860;52.030;5.572;2022-12-11T00:38:40;109.36;;;32.96;;
15516;SDS011;7860;52.030;5.572;2022-12-11T00:39:40;106.92;;;31.88;;
15516;SDS011;7860;52.030;5.572;2022-12-11T00:40:41;100.17;;;31.07;;
15516;SDS011;7860;52.030;5.572;2022-12-11T00:41:42;114.78;;;33.02;;
15516;SDS011;7860;52.030;5.572;2022-12-11T00:42:43;102.66;;;30.91;;
15516;SDS011;7860;52.030;5.572;2022-12-11T00:43:44;103.34;;;31.42;;
15516;SDS011;7860;52.030;5.572;2022-12-11T00:44:44;112.36;;;33.38;;
15516;SDS011;7860;52.030;5.572;2022-12-11T00:45:45;116.31;;;32.47;;
15516;SDS011;7860;52.030;5.572;2022-12-11T00:46:45;119.51;;;33.71;;
15516;SDS011;7860;52.030;5.572;2022-12-11T00:47:46;112.56;;;33.70;;
15516;SDS011;7860;52.030;5.572;2022-12-11T00:48:47;112.90;;;33.69;;
15516;SDS011;7860;52.030;5.572;2022-12-11T00:49:51;112.44;;;33.44;;
15516;SDS011;7860;52.030;5.572;2022-12-11T00:50:49;114.30;;;33.47;;
15516;SDS011;7860;52.030;5.572;2022-12-11T00:51:50;113.06;;;33.47;;
15516;SDS011;7860;52.030;5.572;2022-12-11T00:52:50;114.99;;;32.68;;
15516;SDS011;7860;52.030;5.572;2022-12-11T00:53:51;112.03;;;33.36;;
15516;SDS011;7860;52.030;5.572;2022-12-11T00:54:52;115.15;;;33.03;;
15516;SDS011;7860;52.030;5.572;2022-12-11T00:55:52;102.70;;;31.40;;
15516;SDS011;7860;52.030;5.572;2022-12-11T00:56:54;115.54;;;33.68;;
15516;SDS011;7860;52.030;5.572;2022-12-11T00:57:53;101.75;;;32.72;;
15516;SDS011;7860;52.030;5.572;2022-12-11T00:58:54;106.02;;;32.45;;
15516;SDS011;7860;52.030;5.572;2022-12-11T00:59:55;107.90;;;32.60;;
15516;SDS011;7860;52.030;5.572;2022-12-11T01:01:03;113.92;;;32.92;;
15516;SDS011;7860;52.030;5.572;2022-12-11T01:01:57;110.76;;;33.75;;
15516;SDS011;7860;52.030;5.572;2022-12-11T01:02:58;107.88;;;32.72;;
15516;SDS011;7860;52.030;5.572;2022-12-11T01:03:58;103.89;;;32.28;;
15516;SDS011;7860;52.030;5.572;2022-12-11T01:04:59;111.13;;;32.84;;
15516;SDS011;7860;52.030;5.572;2022-12-11T01:05:59;115.06;;;31.79;;
15516;SDS011;7860;52.030;5.572;2022-12-11T01:07:00;111.41;;;33.83;;
15516;SDS011;7860;52.030;5.572;2022-12-11T01:08:01;115.42;;;33.75;;
15516;SDS011;7860;52.030;5.572;2022-12-11T01:09:00;109.41;;;32.76;;
15516;SDS011;7860;52.030;5.572;2022-12-11T01:10:02;108.53;;;33.85;;
15516;SDS011;7860;52.030;5.572;2022-12-11T01:11:03;117.29;;;33.62;;
15516;SDS011;7860;52.030;5.572;2022-12-11T01:12:02;125.71;;;34.73;;
15516;SDS011;7860;52.030;5.572;2022-12-11T01:13:04;115.59;;;32.67;;
15516;SDS011;7860;52.030;5.572;2022-12-11T01:14:04;117.98;;;34.09;;
15516;SDS011;7860;52.030;5.572;2022-12-11T01:15:04;125.92;;;34.87;;
15516;SDS011;7860;52.030;5.572;2022-12-11T01:16:06;118.03;;;33.39;;
15516;SDS011;7860;52.030;5.572;2022-12-11T01:17:06;119.21;;;34.45;;
15516;SDS011;7860;52.030;5.572;2022-12-11T01:18:06;120.78;;;34.19;;
15516;SDS011;7860;52.030;5.572;2022-12-11T01:19:07;123.46;;;35.05;;
15516;SDS011;7860;52.030;5.572;2022-12-11T01:20:08;123.41;;;34.14;;
15516;SDS011;7860;52.030;5.572;2022-12-11T01:21:09;129.57;;;34.32;;
15516;SDS011;7860;52.030;5.572;2022-12-11T01:22:10;136.03;;;34.41;;
15516;SDS011;7860;52.030;5.572;2022-12-11T01:23:11;130.79;;;35.10;;
15516;SDS011;7860;52.030;5.572;2022-12-11T01:24:11;126.19;;;34.97;;
15516;SDS011;7860;52.030;5.572;2022-12-11T01:25:13;123.95;;;34.27;;
15516;SDS011;7860;52.030;5.572;2022-12-11T01:26:13;134.08;;;35.34;;
15516;SDS011;7860;52.030;5.572;2022-12-11T01:27:13;134.90;;;34.96;;
15516;SDS011;7860;52.030;5.572;2022-12-11T01:28:14;130.50;;;33.73;;
15516;SDS011;7860;52.030;5.572;2022-12-11T01:29:15;127.63;;;34.03;;
15516;SDS011;7860;52.030;5.572;2022-12-11T01:30:16;139.33;;;35.15;;
15516;SDS011;7860;52.030;5.572;2022-12-11T01:31:17;125.62;;;33.54;;
15516;SDS011;7860;52.030;5.572;2022-12-11T01:32:17;147.34;;;35.77;;
15516;SDS011;7860;52.030;5.572;2022-12-11T01:33:18;130.23;;;35.24;;
15516;SDS011;7860;52.030;5.572;2022-12-11T01:34:18;124.23;;;33.81;;
15516;SDS011;7860;52.030;5.572;2022-12-11T01:35:19;131.94;;;33.89;;
15516;SDS011;7860;52.030;5.572;2022-12-11T01:36:20;139.64;;;35.66;;
15516;SDS011;7860;52.030;5.572;2022-12-11T01:37:21;144.59;;;35.55;;
15516;SDS011;7860;52.030;5.572;2022-12-11T01:38:21;140.89;;;35.19;;
15516;SDS011;7860;52.030;5.572;2022-12-11T01:39:21;142.53;;;35.84;;
15516;SDS011;7860;52.030;5.572;2022-12-11T01:40:22;121.29;;;32.73;;
15516;SDS011;7860;52.030;5.572;2022-12-11T01:41:23;131.29;;;34.10;;
15516;SDS011;7860;52.030;5.572;2022-12-11T01:42:23;139.20;;;35.27;;
15516;SDS011;7860;52.030;5.572;2022-12-11T01:43:23;148.69;;;35.11;;
15516;SDS011;7860;52.030;5.572;2022-12-11T01:45:28;147.94;;;35.63;;
15516;SDS011;7860;52.030;5.572;2022-12-11T01:46:26;145.33;;;35.45;;
15516;SDS011;7860;52.030;5.572;2022-12-11T01:47:26;138.25;;;35.72;;
15516;SDS011;7860;52.030;5.572;2022-12-11T01:48:27;154.79;;;36.00;;
15516;SDS011;7860;52.030;5.572;2022-12-11T01:49:28;148.27;;;36.65;;
15516;SDS011;7860;52.030;5.572;2022-12-11T01:50:28;164.32;;;36.04;;
15516;SDS011;7860;52.030;5.572;2022-12-11T01:51:30;154.84;;;36.03;;
15516;SDS011;7860;52.030;5.572;2022-12-11T01:52:30;171.52;;;36.84;;
15516;SDS011;7860;52.030;5.572;2022-12-11T01:53:32;154.86;;;35.92;;
15516;SDS011;7860;52.030;5.572;2022-12-11T01:54:31;127.72;;;33.25;;
15516;SDS011;7860;52.030;5.572;2022-12-11T01:55:31;158.02;;;36.61;;
15516;SDS011;7860;52.030;5.572;2022-12-11T01:56:32;176.44;;;36.71;;
15516;SDS011;7860;52.030;5.572;2022-12-11T01:57:32;148.85;;;34.17;;
15516;SDS011;7860;52.030;5.572;2022-12-11T01:58:34;186.25;;;36.37;;
15516;SDS011;7860;52.030;5.572;2022-12-11T01:59:34;178.52;;;36.69;;
15516;SDS011;7860;52.030;5.572;2022-12-11T02:00:34;169.66;;;35.50;;
15516;SDS011;7860;52.030;5.572;2022-12-11T02:01:36;169.30;;;35.47;;
15516;SDS011;7860;52.030;5.572;2022-12-11T02:02:35;152.89;;;34.57;;
15516;SDS011;7860;52.030;5.572;2022-12-11T02:03:35;167.98;;;36.68;;
15516;SDS011;7860;52.030;5.572;2022-12-11T02:04:37;168.83;;;36.28;;
15516;SDS011;7860;52.030;5.572;2022-12-11T02:05:37;165.30;;;35.74;;
15516;SDS011;7860;52.030;5.572;2022-12-11T02:06:40;182.21;;;36.35;;
15516;SDS011;7860;52.030;5.572;2022-12-11T02:07:39;154.21;;;34.69;;
15516;SDS011;7860;52.030;5.572;2022-12-11T02:08:39;160.24;;;34.31;;
15516;SDS011;7860;52.030;5.572;2022-12-11T02:09:40;139.10;;;32.83;;
15516;SDS011;7860;52.030;5.572;2022-12-11T02:10:43;146.62;;;34.87;;
15516;SDS011;7860;52.030;5.572;2022-12-11T02:11:44;151.69;;;33.59;;
15516;SDS011;7860;52.030;5.572;2022-12-11T02:12:46;153.03;;;34.61;;
15516;SDS011;7860;52.030;5.572;2022-12-11T02:13:43;127.08;;;32.87;;
15516;SDS011;7860;52.030;5.572;2022-12-11T02:14:45;140.73;;;33.79;;
15516;SDS011;7860;52.030;5.572;2022-12-11T02:15:46;129.86;;;32.57;;
15516;SDS011;7860;52.030;5.572;2022-12-11T02:16:45;154.87;;;35.16;;
15516;SDS011;7860;52.030;5.572;2022-12-11T02:17:46;146.26;;;34.53;;
15516;SDS011;7860;52.030;5.572;2022-12-11T02:18:47;149.32;;;34.36;;
15516;SDS011;7860;52.030;5.572;2022-12-11T02:19:50;163.90;;;34.94;;
15516;SDS011;7860;52.030;5.572;2022-12-11T02:20:49;133.40;;;32.78;;
15516;SDS011;7860;52.030;5.572;2022-12-11T02:21:49;161.25;;;35.84;;
15516;SDS011;7860;52.030;5.572;2022-12-11T02:22:53;121.31;;;32.86;;
15516;SDS011;7860;52.030;5.572;2022-12-11T02:23:55;111.11;;;31.09;;
15516;SDS011;7860;52.030;5.572;2022-12-11T02:24:53;121.87;;;32.62;;
15516;SDS011;7860;52.030;5.572;2022-12-11T02:25:51;114.29;;;32.93;;
15516;SDS011;7860;52.030;5.572;2022-12-11T02:26:54;135.97;;;34.06;;
15516;SDS011;7860;52.030;5.572;2022-12-11T02:27:51;123.79;;;33.03;;
15516;SDS011;7860;52.030;5.572;2022-12-11T02:28:52;107.52;;;31.22;;
15516;SDS011;7860;52.030;5.572;2022-12-11T02:29:52;123.49;;;33.85;;
15516;SDS011;7860;52.030;5.572;2022-12-11T02:30:54;124.01;;;33.75;;
15516;SDS011;7860;52.030;5.572;2022-12-11T02:31:55;109.30;;;31.51;;
15516;SDS011;7860;52.030;5.572;2022-12-11T02:32:54;120.15;;;33.07;;
15516;SDS011;7860;52.030;5.572;2022-12-11T02:33:57;118.57;;;33.34;;
15516;SDS011;7860;52.030;5.572;2022-12-11T02:34:57;117.50;;;32.96;;
15516;SDS011;7860;52.030;5.572;2022-12-11T02:35:55;115.67;;;31.81;;
15516;SDS011;7860;52.030;5.572;2022-12-11T02:36:56;115.74;;;33.26;;
15516;SDS011;7860;52.030;5.572;2022-12-11T02:37:58;127.13;;;32.87;;
15516;SDS011;7860;52.030;5.572;2022-12-11T02:38:57;110.46;;;31.75;;
15516;SDS011;7860;52.030;5.572;2022-12-11T02:39:58;122.44;;;33.54;;
15516;SDS011;7860;52.030;5.572;2022-12-11T02:40:59;111.97;;;32.28;;
15516;SDS011;7860;52.030;5.572;2022-12-11T02:41:59;124.46;;;33.20;;
15516;SDS011;7860;52.030;5.572;2022-12-11T02:43:00;123.69;;;33.64;;
15516;SDS011;7860;52.030;5.572;2022-12-11T02:44:01;116.35;;;33.80;;
15516;SDS011;7860;52.030;5.572;2022-12-11T02:45:01;117.18;;;33.06;;
15516;SDS011;7860;52.030;5.572;2022-12-11T02:46:02;105.08;;;32.13;;
15516;SDS011;7860;52.030;5.572;2022-12-11T02:47:02;109.82;;;32.97;;
15516;SDS011;7860;52.030;5.572;2022-12-11T02:48:03;106.27;;;32.90;;
15516;SDS011;7860;52.030;5.572;2022-12-11T02:49:03;112.43;;;33.92;;
15516;SDS011;7860;52.030;5.572;2022-12-11T02:50:06;88.68;;;30.83;;
15516;SDS011;7860;52.030;5.572;2022-12-11T02:51:05;91.18;;;29.85;;
15516;SDS011;7860;52.030;5.572;2022-12-11T02:52:04;95.25;;;31.03;;
15516;SDS011;7860;52.030;5.572;2022-12-11T02:53:05;95.58;;;32.93;;
15516;SDS011;7860;52.030;5.572;2022-12-11T02:54:08;94.95;;;33.66;;
15516;SDS011;7860;52.030;5.572;2022-12-11T02:55:07;89.60;;;32.41;;
15516;SDS011;7860;52.030;5.572;2022-12-11T02:56:09;90.83;;;32.30;;
15516;SDS011;7860;52.030;5.572;2022-12-11T02:57:09;98.55;;;32.70;;
15516;SDS011;7860;52.030;5.572;2022-12-11T02:58:11;91.46;;;33.17;;
15516;SDS011;7860;52.030;5.572;2022-12-11T02:59:10;97.42;;;33.03;;
15516;SDS011;7860;52.030;5.572;2022-12-11T03:00:09;99.78;;;32.43;;
15516;SDS011;7860;52.030;5.572;2022-12-11T03:01:10;93.70;;;32.76;;
15516;SDS011;7860;52.030;5.572;2022-12-11T03:02:11;97.11;;;32.87;;
15516;SDS011;7860;52.030;5.572;2022-12-11T03:03:12;100.10;;;32.99;;
15516;SDS011;7860;52.030;5.572;2022-12-11T03:04:12;98.18;;;33.12;;
15516;SDS011;7860;52.030;5.572;2022-12-11T03:05:13;96.93;;;32.69;;
15516;SDS011;7860;52.030;5.572;2022-12-11T03:06:15;96.06;;;31.38;;
15516;SDS011;7860;52.030;5.572;2022-12-11T03:07:15;98.35;;;32.72;;
15516;SDS011;7860;52.030;5.572;2022-12-11T03:08:14;94.35;;;33.29;;
15516;SDS011;7860;52.030;5.572;2022-12-11T03:09:14;96.33;;;32.57;;
15516;SDS011;7860;52.030;5.572;2022-12-11T03:10:16;97.82;;;33.76;;
15516;SDS011;7860;52.030;5.572;2022-12-11T03:11:16;97.33;;;33.21;;
15516;SDS011;7860;52.030;5.572;2022-12-11T03:12:18;95.07;;;33.01;;
15516;SDS011;7860;52.030;5.572;2022-12-11T03:13:18;99.86;;;34.33;;
15516;SDS011;7860;52.030;5.572;2022-12-11T03:14:18;101.09;;;34.37;;
15516;SDS011;7860;52.030;5.572;2022-12-11T03:15:20;100.19;;;34.15;;
15516;SDS011;7860;52.030;5.572;2022-12-11T03:16:21;103.65;;;35.06;;
15516;SDS011;7860;52.030;5.572;2022-12-11T03:17:21;93.77;;;33.80;;
15516;SDS011;7860;52.030;5.572;2022-12-11T03:18:22;93.49;;;33.29;;
15516;SDS011;7860;52.030;5.572;2022-12-11T03:19:23;93.81;;;33.69;;
15516;SDS011;7860;52.030;5.572;2022-12-11T03:20:24;93.10;;;33.42;;
15516;SDS011;7860;52.030;5.572;2022-12-11T03:21:23;88.77;;;32.99;;
15516;SDS011;7860;52.030;5.572;2022-12-11T03:22:25;89.05;;;32.82;;
15516;SDS011;7860;52.030;5.572;2022-12-11T03:23:25;87.65;;;33.63;;
15516;SDS011;7860;52.030;5.572;2022-12-11T03:24:25;89.72;;;32.93;;
15516;SDS011;7860;52.030;5.572;2022-12-11T03:25:25;83.27;;;31.97;;
15516;SDS011;7860;52.030;5.572;2022-12-11T03:26:25;88.32;;;32.19;;
15516;SDS011;7860;52.030;5.572;2022-12-11T03:27:27;88.32;;;33.54;;
15516;SDS011;7860;52.030;5.572;2022-12-11T03:28:28;83.56;;;33.18;;
15516;SDS011;7860;52.030;5.572;2022-12-11T03:29:29;87.23;;;33.06;;
15516;SDS011;7860;52.030;5.572;2022-12-11T03:30:27;88.54;;;33.16;;
15516;SDS011;7860;52.030;5.572;2022-12-11T03:31:28;80.69;;;31.59;;
15516;SDS011;7860;52.030;5.572;2022-12-11T03:32:28;80.52;;;31.80;;
15516;SDS011;7860;52.030;5.572;2022-12-11T03:33:29;81.21;;;32.11;;
15516;SDS011;7860;52.030;5.572;2022-12-11T03:34:30;84.38;;;33.26;;
15516;SDS011;7860;52.030;5.572;2022-12-11T03:35:30;85.13;;;33.00;;
15516;SDS011;7860;52.030;5.572;2022-12-11T03:36:31;82.24;;;32.65;;
15516;SDS011;7860;52.030;5.572;2022-12-11T03:37:31;75.33;;;31.88;;
15516;SDS011;7860;52.030;5.572;2022-12-11T03:38:32;83.86;;;32.85;;
15516;SDS011;7860;52.030;5.572;2022-12-11T03:39:32;76.53;;;31.10;;
15516;SDS011;7860;52.030;5.572;2022-12-11T03:40:33;76.01;;;30.83;;
15516;SDS011;7860;52.030;5.572;2022-12-11T03:41:34;78.73;;;32.81;;
15516;SDS011;7860;52.030;5.572;2022-12-11T03:42:34;81.99;;;32.52;;
15516;SDS011;7860;52.030;5.572;2022-12-11T03:43:35;78.89;;;31.92;;
15516;SDS011;7860;52.030;5.572;2022-12-11T03:44:35;78.11;;;31.78;;
15516;SDS011;7860;52.030;5.572;2022-12-11T03:45:36;75.56;;;31.43;;
15516;SDS011;7860;52.030;5.572;2022-12-11T03:46:37;76.55;;;31.64;;
15516;SDS011;7860;52.030;5.572;2022-12-11T03:47:37;81.24;;;34.56;;
15516;SDS011;7860;52.030;5.572;2022-12-11T03:48:38;77.13;;;33.71;;
15516;SDS011;7860;52.030;5.572;2022-12-11T03:49:39;86.29;;;35.15;;
15516;SDS011;7860;52.030;5.572;2022-12-11T03:50:38;78.36;;;33.27;;
15516;SDS011;7860;52.030;5.572;2022-12-11T03:51:39;75.47;;;32.34;;
15516;SDS011;7860;52.030;5.572;2022-12-11T03:52:40;76.85;;;32.92;;
15516;SDS011;7860;52.030;5.572;2022-12-11T03:53:40;70.76;;;32.50;;
15516;SDS011;7860;52.030;5.572;2022-12-11T03:54:41;70.68;;;32.15;;
15516;SDS011;7860;52.030;5.572;2022-12-11T03:55:41;73.45;;;31.24;;
15516;SDS011;7860;52.030;5.572;2022-12-11T03:56:41;74.91;;;33.33;;
15516;SDS011;7860;52.030;5.572;2022-12-11T03:57:42;68.52;;;32.32;;
15516;SDS011;7860;52.030;5.572;2022-12-11T03:58:44;72.00;;;31.97;;
15516;SDS011;7860;52.030;5.572;2022-12-11T03:59:43;72.31;;;32.74;;
15516;SDS011;7860;52.030;5.572;2022-12-11T04:00:43;71.45;;;32.37;;
15516;SDS011;7860;52.030;5.572;2022-12-11T04:01:44;70.49;;;31.64;;
15516;SDS011;7860;52.030;5.572;2022-12-11T04:02:45;71.82;;;32.11;;
15516;SDS011;7860;52.030;5.572;2022-12-11T04:03:45;71.64;;;31.36;;
15516;SDS011;7860;52.030;5.572;2022-12-11T04:04:45;71.36;;;31.40;;
15516;SDS011;7860;52.030;5.572;2022-12-11T04:05:48;67.17;;;30.72;;
15516;SDS011;7860;52.030;5.572;2022-12-11T04:06:47;71.82;;;31.68;;
15516;SDS011;7860;52.030;5.572;2022-12-11T04:07:47;72.85;;;31.81;;
15516;SDS011;7860;52.030;5.572;2022-12-11T04:08:48;71.95;;;31.70;;
15516;SDS011;7860;52.030;5.572;2022-12-11T04:09:48;75.19;;;32.30;;
15516;SDS011;7860;52.030;5.572;2022-12-11T04:10:49;74.11;;;32.11;;
15516;SDS011;7860;52.030;5.572;2022-12-11T04:11:49;80.32;;;33.78;;
15516;SDS011;7860;52.030;5.572;2022-12-11T04:12:50;78.72;;;32.61;;
15516;SDS011;7860;52.030;5.572;2022-12-11T04:13:50;82.80;;;32.60;;
15516;SDS011;7860;52.030;5.572;2022-12-11T04:14:51;75.24;;;32.57;;
15516;SDS011;7860;52.030;5.572;2022-12-11T04:15:51;75.63;;;32.94;;
15516;SDS011;7860;52.030;5.572;2022-12-11T04:16:52;79.69;;;33.28;;
15516;SDS011;7860;52.030;5.572;2022-12-11T04:17:53;70.64;;;31.26;;
15516;SDS011;7860;52.030;5.572;2022-12-11T04:18:53;72.18;;;30.89;;
15516;SDS011;7860;52.030;5.572;2022-12-11T04:19:54;73.87;;;31.61;;
15516;SDS011;7860;52.030;5.572;2022-12-11T04:20:55;71.32;;;33.06;;
15516;SDS011;7860;52.030;5.572;2022-12-11T04:21:55;78.95;;;34.11;;
15516;SDS011;7860;52.030;5.572;2022-12-11T04:22:55;72.58;;;32.94;;
15516;SDS011;7860;52.030;5.572;2022-12-11T04:23:56;81.58;;;33.25;;
15516;SDS011;7860;52.030;5.572;2022-12-11T04:24:58;84.05;;;32.69;;
15516;SDS011;7860;52.030;5.572;2022-12-11T04:26:02;75.46;;;32.03;;
15516;SDS011;7860;52.030;5.572;2022-12-11T04:26:59;73.63;;;31.54;;
15516;SDS011;7860;52.030;5.572;2022-12-11T04:27:59;70.53;;;31.66;;
15516;SDS011;7860;52.030;5.572;2022-12-11T04:29:00;68.83;;;30.79;;
15516;SDS011;7860;52.030;5.572;2022-12-11T04:30:00;69.11;;;30.92;;
15516;SDS011;7860;52.030;5.572;2022-12-11T04:31:01;84.03;;;34.13;;
15516;SDS011;7860;52.030;5.572;2022-12-11T04:32:01;79.19;;;33.43;;
15516;SDS011;7860;52.030;5.572;2022-12-11T04:33:02;81.84;;;33.54;;
15516;SDS011;7860;52.030;5.572;2022-12-11T04:34:02;86.29;;;34.13;;
15516;SDS011;7860;52.030;5.572;2022-12-11T04:35:04;74.08;;;32.04;;
15516;SDS011;7860;52.030;5.572;2022-12-11T04:36:03;70.89;;;31.87;;
15516;SDS011;7860;52.030;5.572;2022-12-11T04:37:03;76.16;;;32.64;;
15516;SDS011;7860;52.030;5.572;2022-12-11T04:38:04;69.32;;;32.36;;
15516;SDS011;7860;52.030;5.572;2022-12-11T04:39:04;71.17;;;31.60;;
15516;SDS011;7860;52.030;5.572;2022-12-11T04:40:07;74.02;;;32.07;;
15516;SDS011;7860;52.030;5.572;2022-12-11T04:41:09;76.74;;;33.65;;
15516;SDS011;7860;52.030;5.572;2022-12-11T04:42:06;80.80;;;31.60;;
15516;SDS011;7860;52.030;5.572;2022-12-11T04:43:07;70.84;;;33.01;;
15516;SDS011;7860;52.030;5.572;2022-12-11T04:44:08;68.02;;;32.60;;
15516;SDS011;7860;52.030;5.572;2022-12-11T04:45:10;75.84;;;32.70;;
15516;SDS011;7860;52.030;5.572;2022-12-11T04:46:10;77.79;;;32.59;;
15516;SDS011;7860;52.030;5.572;2022-12-11T04:47:10;92.61;;;33.15;;
15516;SDS011;7860;52.030;5.572;2022-12-11T04:48:10;88.85;;;33.43;;
15516;SDS011;7860;52.030;5.572;2022-12-11T04:49:11;78.70;;;32.66;;
15516;SDS011;7860;52.030;5.572;2022-12-11T04:50:12;71.74;;;31.47;;
15516;SDS011;7860;52.030;5.572;2022-12-11T04:51:12;76.08;;;31.98;;
15516;SDS011;7860;52.030;5.572;2022-12-11T04:52:13;69.74;;;29.83;;
15516;SDS011;7860;52.030;5.572;2022-12-11T04:53:13;62.66;;;30.20;;
15516;SDS011;7860;52.030;5.572;2022-12-11T04:54:14;61.70;;;30.18;;
15516;SDS011;7860;52.030;5.572;2022-12-11T04:55:15;62.11;;;30.10;;
15516;SDS011;7860;52.030;5.572;2022-12-11T04:56:16;60.89;;;30.51;;
15516;SDS011;7860;52.030;5.572;2022-12-11T04:57:16;61.56;;;29.70;;
15516;SDS011;7860;52.030;5.572;2022-12-11T04:58:16;60.06;;;30.12;;
15516;SDS011;7860;52.030;5.572;2022-12-11T04:59:16;60.98;;;29.43;;
15516;SDS011;7860;52.030;5.572;2022-12-11T05:00:17;63.06;;;30.02;;
15516;SDS011;7860;52.030;5.572;2022-12-11T05:01:19;62.36;;;29.09;;
15516;SDS011;7860;52.030;5.572;2022-12-11T05:02:18;63.53;;;29.97;;
15516;SDS011;7860;52.030;5.572;2022-12-11T05:03:19;54.79;;;28.71;;
15516;SDS011;7860;52.030;5.572;2022-12-11T05:04:19;54.95;;;28.59;;
15516;SDS011;7860;52.030;5.572;2022-12-11T05:05:20;54.52;;;28.81;;
15516;SDS011;7860;52.030;5.572;2022-12-11T05:06:22;54.57;;;28.17;;
15516;SDS011;7860;52.030;5.572;2022-12-11T05:07:22;53.85;;;28.27;;
15516;SDS011;7860;52.030;5.572;2022-12-11T05:08:22;55.40;;;28.14;;
15516;SDS011;7860;52.030;5.572;2022-12-11T05:09:23;50.21;;;27.21;;
15516;SDS011;7860;52.030;5.572;2022-12-11T05:10:24;49.93;;;26.98;;
15516;SDS011;7860;52.030;5.572;2022-12-11T05:11:24;49.80;;;27.34;;
15516;SDS011;7860;52.030;5.572;2022-12-11T05:12:26;51.60;;;26.46;;
15516;SDS011;7860;52.030;5.572;2022-12-11T05:13:27;51.79;;;27.28;;
15516;SDS011;7860;52.030;5.572;2022-12-11T05:14:26;50.61;;;26.90;;
15516;SDS011;7860;52.030;5.572;2022-12-11T05:15:27;55.72;;;27.95;;
15516;SDS011;7860;52.030;5.572;2022-12-11T05:16:28;48.01;;;25.16;;
15516;SDS011;7860;52.030;5.572;2022-12-11T05:17:28;51.26;;;26.37;;
15516;SDS011;7860;52.030;5.572;2022-12-11T05:18:29;49.82;;;27.10;;
15516;SDS011;7860;52.030;5.572;2022-12-11T05:19:30;55.15;;;27.96;;
15516;SDS011;7860;52.030;5.572;2022-12-11T05:20:30;52.08;;;27.04;;
15516;SDS011;7860;52.030;5.572;2022-12-11T05:21:31;50.02;;;27.76;;
15516;SDS011;7860;52.030;5.572;2022-12-11T05:22:32;54.04;;;27.52;;
15516;SDS011;7860;52.030;5.572;2022-12-11T05:23:32;54.34;;;27.74;;
15516;SDS011;7860;52.030;5.572;2022-12-11T05:24:33;49.78;;;27.07;;
15516;SDS011;7860;52.030;5.572;2022-12-11T05:25:34;53.13;;;28.00;;
15516;SDS011;7860;52.030;5.572;2022-12-11T05:26:35;48.87;;;26.83;;
15516;SDS011;7860;52.030;5.572;2022-12-11T05:27:35;51.49;;;27.22;;
15516;SDS011;7860;52.030;5.572;2022-12-11T05:28:36;49.90;;;26.88;;
15516;SDS011;7860;52.030;5.572;2022-12-11T05:29:36;49.98;;;26.00;;
15516;SDS011;7860;52.030;5.572;2022-12-11T05:30:37;47.68;;;27.35;;
15516;SDS011;7860;52.030;5.572;2022-12-11T05:31:38;53.82;;;27.48;;
15516;SDS011;7860;52.030;5.572;2022-12-11T05:32:39;51.97;;;27.04;;
15516;SDS011;7860;52.030;5.572;2022-12-11T05:33:40;53.72;;;27.55;;
15516;SDS011;7860;52.030;5.572;2022-12-11T05:34:40;46.53;;;26.04;;
15516;SDS011;7860;52.030;5.572;2022-12-11T05:35:45;47.94;;;26.57;;
15516;SDS011;7860;52.030;5.572;2022-12-11T05:36:41;46.71;;;25.41;;
15516;SDS011;7860;52.030;5.572;2022-12-11T05:37:42;50.93;;;27.67;;
15516;SDS011;7860;52.030;5.572;2022-12-11T05:38:43;45.63;;;26.40;;
15516;SDS011;7860;52.030;5.572;2022-12-11T05:39:43;45.38;;;26.07;;
15516;SDS011;7860;52.030;5.572;2022-12-11T05:40:44;47.98;;;27.07;;
15516;SDS011;7860;52.030;5.572;2022-12-11T05:41:44;48.13;;;26.61;;
15516;SDS011;7860;52.030;5.572;2022-12-11T05:42:44;43.70;;;26.23;;
15516;SDS011;7860;52.030;5.572;2022-12-11T05:43:46;46.68;;;27.44;;
15516;SDS011;7860;52.030;5.572;2022-12-11T05:44:48;49.60;;;27.29;;
15516;SDS011;7860;52.030;5.572;2022-12-11T05:45:46;45.76;;;25.99;;
15516;SDS011;7860;52.030;5.572;2022-12-11T05:46:47;44.87;;;25.91;;
15516;SDS011;7860;52.030;5.572;2022-12-11T05:47:48;50.05;;;28.60;;
15516;SDS011;7860;52.030;5.572;2022-12-11T05:48:50;49.29;;;28.20;;
15516;SDS011;7860;52.030;5.572;2022-12-11T05:49:49;48.01;;;26.46;;
15516;SDS011;7860;52.030;5.572;2022-12-11T05:50:57;50.27;;;28.61;;
15516;SDS011;7860;52.030;5.572;2022-12-11T05:51:51;50.95;;;28.86;;
15516;SDS011;7860;52.030;5.572;2022-12-11T05:52:52;50.15;;;28.61;;
15516;SDS011;7860;52.030;5.572;2022-12-11T05:53:53;51.30;;;28.14;;
15516;SDS011;7860;52.030;5.572;2022-12-11T05:54:54;48.24;;;29.78;;
15516;SDS011;7860;52.030;5.572;2022-12-11T05:55:54;55.22;;;30.16;;
15516;SDS011;7860;52.030;5.572;2022-12-11T05:56:55;55.18;;;29.90;;
15516;SDS011;7860;52.030;5.572;2022-12-11T05:57:55;48.73;;;28.46;;